Mobile Downtown Airport
KBFM : rendu visible

Aérodrome :











RETROUVEZ-NOUS SUR...

 
LOGIN :

S'inscrire | Disclaimer

   EN    FR    IT 

 









Légende :    VFR   VFR Marginal   IFR   IFR Intensif   IFR Très Intensif
Visi : 
Plafond : 
>= 8 km
>= 3000ft
5 à 8 km
1000 à 3000 ft
1500m à 5 km
500 à 1000 ft
800 à 1500m
200 à 500 ft
< 800m
< 200 ft
Symboles :   Orages  Brouillard  Fortes neiges  Fortes précipitations  Vent > 20 kt






- Altitude de l'aérodrome : 26 ft


KBFM - Mobile Downtown

DERNIER METAR :
  • 210053Z 35010KT 10SM CLR 06/M06 A3043 RMK AO2 SLP303 T00611061

METARs EXPIRÉS :
  • 202353Z 35010KT 10SM CLR 07/M06 A3041 RMK AO2 SLP296 T00721061 10106 20067 53008
  • 202253Z 36012KT 10SM CLR 08/M07 A3039 RMK AO2 SLP289 T00831067

TAF KBFM
Valide du 21 à 00h jusqu'au 22 à 00h UTC


202324Z 2100/2124 34009KT P6SM SKC
FM211500 35014KT P6SM SKC



MET'MAP, la Météo Aéronautique d'un coup d'oeil ! - Copyright ORBIFLY Décembre 2007 - Disclaimer

ORBIFLY MET'MAP TEAM :

Programmation & Développement : Alexandra Zaïnal
Sur une idée originale de : Baudouin d'Aumeries
Assistance à la programmation : Marc-Olivier Méhu
Soutien technique & logistique : Manuel Goepfert

Contact : metmap@orbifly.com




SOURCES & CREDITS :

   NOAA       Earth
Advisory